createdAt,value
2014-08-09T00:00:16.195Z,100655
2014-08-09T00:00:34.478Z,100675
2014-08-09T00:00:52.759Z,100658
2014-08-09T00:01:11.040Z,100658
2014-08-09T00:01:29.337Z,100658
2014-08-09T00:01:47.619Z,100658
2014-08-09T00:02:05.901Z,100661
2014-08-09T00:02:24.182Z,100666
2014-08-09T00:02:42.482Z,100664
2014-08-09T00:03:00.763Z,100669
2014-08-09T00:03:19.060Z,100672
2014-08-09T00:03:37.343Z,100663
2014-08-09T00:03:55.640Z,100663
2014-08-09T00:04:13.921Z,100658
2014-08-09T00:04:32.203Z,100669
2014-08-09T00:04:50.500Z,100663
2014-08-09T00:05:08.782Z,100661
2014-08-09T00:05:27.063Z,100669
2014-08-09T00:05:45.362Z,100661
2014-08-09T00:06:03.643Z,100666
2014-08-09T00:06:21.924Z,100663
2014-08-09T00:06:40.223Z,100653
2014-08-09T00:06:58.504Z,100666
2014-08-09T00:07:16.801Z,100655
2014-08-09T00:07:35.085Z,100661
2014-08-09T00:07:53.366Z,100663
2014-08-09T00:08:11.663Z,100661
2014-08-09T00:08:29.944Z,100655
2014-08-09T00:08:48.227Z,100658
2014-08-09T00:09:06.524Z,100650
2014-08-09T00:09:24.805Z,100655
2014-08-09T00:09:43.089Z,100661
2014-08-09T00:10:01.385Z,100658
2014-08-09T00:10:19.667Z,100658
2014-08-09T00:10:37.966Z,100655
2014-08-09T00:10:56.247Z,100655
2014-08-09T00:11:14.544Z,100661
2014-08-09T00:11:32.825Z,100661
2014-08-09T00:11:51.107Z,100647
2014-08-09T00:12:09.388Z,100650
2014-08-09T00:12:27.685Z,100655
2014-08-09T00:12:45.969Z,100653
2014-08-09T00:13:04.265Z,100653
2014-08-09T00:13:22.547Z,100650
2014-08-09T00:13:40.847Z,100650
2014-08-09T00:13:59.128Z,100650
2014-08-09T00:14:17.409Z,100641
2014-08-09T00:14:35.708Z,100644
2014-08-09T00:14:53.989Z,100644
2014-08-09T00:15:12.270Z,100650
2014-08-09T00:15:30.567Z,100655
2014-08-09T00:15:48.851Z,100644
2014-08-09T00:16:07.132Z,100636
2014-08-09T00:16:25.429Z,100650
2014-08-09T00:16:43.711Z,100633
2014-08-09T00:17:02.008Z,100644
2014-08-09T00:17:20.289Z,100647
2014-08-09T00:17:38.588Z,100650
2014-08-09T00:17:56.869Z,100642
2014-08-09T00:18:15.150Z,100644
2014-08-09T00:18:33.449Z,100639
2014-08-09T00:18:51.731Z,100647
2014-08-09T00:19:10.012Z,100644
2014-08-09T00:19:28.309Z,100642
2014-08-09T00:19:46.592Z,100644
2014-08-09T00:20:04.889Z,100644
2014-08-09T00:20:23.170Z,100633
2014-08-09T00:20:41.452Z,100644
2014-08-09T00:20:59.749Z,100630
2014-08-09T00:21:18.030Z,100641
2014-08-09T00:21:36.314Z,100633
2014-08-09T00:21:54.611Z,100633
2014-08-09T00:22:12.892Z,100633
2014-08-09T00:22:31.173Z,100636
2014-08-09T00:22:49.473Z,100630
2014-08-09T00:23:07.754Z,100641
2014-08-09T00:23:26.051Z,100636
2014-08-09T00:23:44.334Z,100633
2014-08-09T00:24:02.631Z,100639
2014-08-09T00:24:20.912Z,100630
2014-08-09T00:24:39.196Z,100630
2014-08-09T00:24:57.493Z,100630
2014-08-09T00:25:15.774Z,100633
2014-08-09T00:25:34.073Z,100633
2014-08-09T00:25:52.354Z,100630
2014-08-09T00:26:10.635Z,100627
2014-08-09T00:26:28.932Z,100636
2014-08-09T00:26:47.214Z,100630
2014-08-09T00:27:05.511Z,100630
2014-08-09T00:27:23.792Z,100630
2014-08-09T00:27:42.091Z,100639
2014-08-09T00:28:00.373Z,100636
2014-08-09T00:28:18.654Z,100639
2014-08-09T00:28:36.954Z,100630
2014-08-09T00:28:55.235Z,100641
2014-08-09T00:29:13.516Z,100630
2014-08-09T00:29:31.813Z,100630
2014-08-09T00:29:50.096Z,100639
2014-08-09T00:30:08.378Z,100627
2014-08-09T00:30:26.674Z,100633
2014-08-09T00:30:44.957Z,100639
2014-08-09T00:31:03.254Z,100641
2014-08-09T00:31:21.535Z,100627
2014-08-09T00:31:39.834Z,100639
2014-08-09T00:31:58.115Z,100633
2014-08-09T00:32:16.412Z,100636
2014-08-09T00:32:34.695Z,100627
2014-08-09T00:32:52.976Z,100644
2014-08-09T00:33:11.273Z,100630
2014-08-09T00:33:29.554Z,100627
2014-08-09T00:33:47.838Z,100639
2014-08-09T00:34:06.135Z,100636
2014-08-09T00:34:24.416Z,100627
2014-08-09T00:34:42.683Z,100630
2014-08-09T00:35:00.996Z,100633
2014-08-09T00:35:19.277Z,100641
2014-08-09T00:35:37.576Z,100641
2014-08-09T00:35:55.857Z,100630
2014-08-09T00:36:14.154Z,100633
2014-08-09T00:36:32.435Z,100630
2014-08-09T00:36:50.719Z,100636
2014-08-09T00:37:09.016Z,100639
2014-08-09T00:37:27.297Z,100639
2014-08-09T00:37:45.595Z,100639
2014-08-09T00:38:03.876Z,100639
2014-08-09T00:38:22.157Z,100644
2014-08-09T00:38:40.456Z,100639
2014-08-09T00:38:58.737Z,100644
2014-08-09T00:39:17.019Z,100639
2014-08-09T00:39:35.318Z,100636
2014-08-09T00:39:53.600Z,100636
2014-08-09T00:40:11.881Z,100636
2014-08-09T00:40:30.178Z,100633
2014-08-09T00:40:48.461Z,100639
2014-08-09T00:41:06.758Z,100641
2014-08-09T00:41:25.039Z,100639
2014-08-09T00:41:43.321Z,100639
2014-08-09T00:42:01.618Z,100641
2014-08-09T00:42:19.900Z,100627
2014-08-09T00:42:38.198Z,100633
2014-08-09T00:42:56.480Z,100644
2014-08-09T00:43:14.761Z,100630
2014-08-09T00:43:33.058Z,100630
2014-08-09T00:43:51.341Z,100630
2014-08-09T00:44:09.622Z,100638
2014-08-09T00:44:27.919Z,100630
2014-08-09T00:44:46.202Z,100627
2014-08-09T00:45:04.484Z,100633
2014-08-09T00:45:22.781Z,100638
2014-08-09T00:45:41.064Z,100633
2014-08-09T00:45:59.361Z,100627
2014-08-09T00:46:17.642Z,100627
2014-08-09T00:46:35.941Z,100627
2014-08-09T00:46:54.222Z,100627
2014-08-09T00:47:12.503Z,100627
2014-08-09T00:47:30.800Z,100621
2014-08-09T00:47:49.099Z,100618
2014-08-09T00:48:07.380Z,100627
2014-08-09T00:48:25.677Z,100627
2014-08-09T00:48:43.960Z,100621
2014-08-09T00:49:02.257Z,100616
2014-08-09T00:49:20.554Z,100630
2014-08-09T00:49:38.852Z,100627
2014-08-09T00:49:57.133Z,100624
2014-08-09T00:50:15.430Z,100630
2014-08-09T00:50:33.711Z,100630
2014-08-09T00:50:52.011Z,100627
2014-08-09T00:51:10.293Z,100630
2014-08-09T00:51:28.574Z,100633
2014-08-09T00:51:46.872Z,100624
2014-08-09T00:52:05.153Z,100636
2014-08-09T00:52:23.434Z,100633
2014-08-09T00:52:41.733Z,100630
2014-08-09T00:53:00.014Z,100644
2014-08-09T00:53:18.296Z,100636
2014-08-09T00:53:36.594Z,100627
2014-08-09T00:53:54.876Z,100618
2014-08-09T00:54:13.157Z,100627
2014-08-09T00:54:31.454Z,100618
2014-08-09T00:54:49.737Z,100621
2014-08-09T00:55:08.018Z,100616
2014-08-09T00:55:26.315Z,100613
2014-08-09T00:55:44.598Z,100621
2014-08-09T00:56:02.895Z,100621
2014-08-09T00:56:21.177Z,100618
2014-08-09T00:56:39.460Z,100624
2014-08-09T00:56:57.757Z,100627
2014-08-09T00:57:16.038Z,100616
2014-08-09T00:57:34.335Z,100624
2014-08-09T00:57:52.618Z,100616
2014-08-09T00:58:10.899Z,100618
2014-08-09T00:58:29.196Z,100621
2014-08-09T00:58:47.495Z,100616
2014-08-09T00:59:05.776Z,100624
2014-08-09T00:59:24.058Z,100610
2014-08-09T00:59:42.356Z,100613
2014-08-09T01:00:00.638Z,100607
2014-08-09T01:00:18.919Z,100624
2014-08-09T01:00:37.218Z,100613
2014-08-09T01:00:55.515Z,100615
2014-08-09T01:01:13.812Z,100618
2014-08-09T01:01:32.093Z,100618
2014-08-09T01:01:50.376Z,100615
2014-08-09T01:02:08.673Z,100613
2014-08-09T01:02:26.954Z,100613
2014-08-09T01:02:45.237Z,100615
2014-08-09T01:03:03.534Z,100615
2014-08-09T01:03:21.816Z,100618
2014-08-09T01:03:40.114Z,100613
2014-08-09T01:03:58.396Z,100607
2014-08-09T01:04:16.693Z,100618
2014-08-09T01:04:34.974Z,100618
2014-08-09T01:04:53.257Z,100618
2014-08-09T01:05:11.554Z,100618
2014-08-09T01:05:29.835Z,100615
2014-08-09T01:05:48.133Z,100613
2014-08-09T01:06:06.414Z,100610
2014-08-09T01:06:24.696Z,100601
2014-08-09T01:06:42.979Z,100604
2014-08-09T01:07:01.276Z,100607
2014-08-09T01:07:19.557Z,100610
2014-08-09T01:07:37.857Z,100618
2014-08-09T01:07:56.138Z,100610
2014-08-09T01:08:14.419Z,100612
2014-08-09T01:08:32.716Z,100604
2014-08-09T01:08:50.998Z,100615
2014-08-09T01:09:09.295Z,100604
2014-08-09T01:09:27.577Z,100604
2014-08-09T01:09:45.860Z,100604
2014-08-09T01:10:04.157Z,100601
2014-08-09T01:10:22.438Z,100601
2014-08-09T01:10:40.721Z,100604
2014-08-09T01:10:59.002Z,100598
2014-08-09T01:11:17.299Z,100607
2014-08-09T01:11:35.583Z,100607
2014-08-09T01:11:53.864Z,100601
2014-08-09T01:12:12.161Z,100604
2014-08-09T01:12:30.442Z,100601
2014-08-09T01:12:48.725Z,100604
2014-08-09T01:13:07.022Z,100607
2014-08-09T01:13:25.303Z,100595
2014-08-09T01:13:43.602Z,100604
2014-08-09T01:14:01.883Z,100604
2014-08-09T01:14:20.180Z,100607
2014-08-09T01:14:38.462Z,100604
2014-08-09T01:14:56.745Z,100607
2014-08-09T01:15:15.042Z,100607
2014-08-09T01:15:33.339Z,100607
2014-08-09T01:15:51.637Z,100601
2014-08-09T01:16:09.919Z,100607
2014-08-09T01:16:28.200Z,100604
2014-08-09T01:16:46.482Z,100604
2014-08-09T01:17:04.779Z,100601
2014-08-09T01:17:23.076Z,100598
2014-08-09T01:17:41.360Z,100598
2014-08-09T01:17:59.641Z,100598
2014-08-09T01:18:17.938Z,100598
2014-08-09T01:18:36.220Z,100604
2014-08-09T01:18:54.503Z,100607
2014-08-09T01:19:12.800Z,100595
2014-08-09T01:19:31.081Z,100601
2014-08-09T01:19:49.364Z,100601
2014-08-09T01:20:07.661Z,100604
2014-08-09T01:20:25.942Z,100609
2014-08-09T01:20:44.226Z,100601
2014-08-09T01:21:02.522Z,100598
2014-08-09T01:21:20.804Z,100601
2014-08-09T01:21:39.101Z,100612
2014-08-09T01:21:57.384Z,100604
2014-08-09T01:22:15.681Z,100598
2014-08-09T01:22:33.962Z,100607
2014-08-09T01:22:52.244Z,100598
2014-08-09T01:23:10.541Z,100595
2014-08-09T01:23:28.822Z,100612
2014-08-09T01:23:47.119Z,100607
2014-08-09T01:24:05.402Z,100601
2014-08-09T01:24:23.684Z,100604
2014-08-09T01:24:41.981Z,100598
2014-08-09T01:25:00.265Z,100601
2014-08-09T01:25:18.562Z,100604
2014-08-09T01:25:36.843Z,100604
2014-08-09T01:25:55.124Z,100607
2014-08-09T01:26:13.422Z,100604
2014-08-09T01:26:31.703Z,100601
2014-08-09T01:26:49.985Z,100604
2014-08-09T01:27:08.269Z,100607
2014-08-09T01:27:26.566Z,100598
2014-08-09T01:27:44.847Z,100609
2014-08-09T01:28:03.128Z,100598
2014-08-09T01:28:21.426Z,100601
2014-08-09T01:28:39.707Z,100601
2014-08-09T01:28:57.989Z,100592
2014-08-09T01:29:16.288Z,100592
2014-08-09T01:29:34.570Z,100589
2014-08-09T01:29:52.867Z,100592
2014-08-09T01:30:11.148Z,100586
2014-08-09T01:30:29.431Z,100592
2014-08-09T01:30:47.728Z,100598
2014-08-09T01:31:06.009Z,100592
2014-08-09T01:31:24.292Z,100598
2014-08-09T01:31:42.589Z,100598
2014-08-09T01:32:03.214Z,100586
2014-08-09T01:32:21.496Z,100601
2014-08-09T01:32:39.779Z,100589
2014-08-09T01:32:58.076Z,100592
2014-08-09T01:33:16.357Z,100592
2014-08-09T01:33:34.656Z,100589
2014-08-09T01:33:52.937Z,100582
2014-08-09T01:34:11.234Z,100598
2014-08-09T01:34:29.515Z,100592
2014-08-09T01:34:47.798Z,100589
2014-08-09T01:35:06.095Z,100589
2014-08-09T01:35:24.377Z,100592
2014-08-09T01:35:42.644Z,100595
2014-08-09T01:36:00.957Z,100595
2014-08-09T01:36:19.238Z,100592
2014-08-09T01:36:37.537Z,100586
2014-08-09T01:36:55.818Z,100589
2014-08-09T01:37:14.115Z,100586
2014-08-09T01:37:32.396Z,100586
2014-08-09T01:37:50.679Z,100589
2014-08-09T01:38:08.976Z,100589
2014-08-09T01:38:27.258Z,100586
2014-08-09T01:38:45.541Z,100586
2014-08-09T01:39:03.838Z,100579
2014-08-09T01:39:22.119Z,100586
2014-08-09T01:39:40.401Z,100586
2014-08-09T01:39:58.698Z,100586
2014-08-09T01:40:16.979Z,100586
2014-08-09T01:40:35.276Z,100592
2014-08-09T01:40:53.560Z,100589
2014-08-09T01:41:11.842Z,100586
2014-08-09T01:41:30.139Z,100592
2014-08-09T01:41:48.421Z,100586
2014-08-09T01:42:06.718Z,100586
2014-08-09T01:42:24.999Z,100579
2014-08-09T01:42:43.299Z,100592
2014-08-09T01:43:01.580Z,100586
2014-08-09T01:43:19.861Z,100581
2014-08-09T01:43:38.158Z,100586
2014-08-09T01:43:56.440Z,100581
2014-08-09T01:44:14.737Z,100576
2014-08-09T01:44:33.019Z,100581
2014-08-09T01:44:51.303Z,100579
2014-08-09T01:45:09.600Z,100570
2014-08-09T01:45:27.881Z,100578
2014-08-09T01:45:46.162Z,100578
2014-08-09T01:46:04.445Z,100581
2014-08-09T01:46:22.742Z,100595
2014-08-09T01:46:41.024Z,100592
2014-08-09T01:46:59.307Z,100581
2014-08-09T01:47:17.588Z,100581
2014-08-09T01:47:35.869Z,100581
2014-08-09T01:47:54.166Z,100581
2014-08-09T01:48:12.449Z,100581
2014-08-09T01:48:30.731Z,100573
2014-08-09T01:48:49.012Z,100578
2014-08-09T01:49:07.311Z,100576
2014-08-09T01:49:25.592Z,100567
2014-08-09T01:49:43.873Z,100576
2014-08-09T01:50:02.170Z,100581
2014-08-09T01:50:20.453Z,100581
2014-08-09T01:50:38.735Z,100576
2014-08-09T01:50:57.032Z,100576
2014-08-09T01:51:15.315Z,100570
2014-08-09T01:51:33.612Z,100586
2014-08-09T01:51:51.893Z,100573
2014-08-09T01:52:10.174Z,100570
2014-08-09T01:52:28.473Z,100573
2014-08-09T01:52:46.754Z,100558
2014-08-09T01:53:05.036Z,100570
2014-08-09T01:53:23.334Z,100573
2014-08-09T01:53:41.616Z,100578
2014-08-09T01:53:59.897Z,100578
2014-08-09T01:54:18.178Z,100578
2014-08-09T01:54:36.477Z,100576
2014-08-09T01:54:54.758Z,100578
2014-08-09T01:55:13.040Z,100573
2014-08-09T01:55:31.323Z,100573
2014-08-09T01:55:49.620Z,100573
2014-08-09T01:56:07.901Z,100578
2014-08-09T01:56:26.198Z,100581
2014-08-09T01:56:44.482Z,100576
2014-08-09T01:57:02.763Z,100589
2014-08-09T01:57:21.060Z,100575
2014-08-09T01:57:39.358Z,100578
2014-08-09T01:57:57.639Z,100578
2014-08-09T01:58:15.921Z,100578
2014-08-09T01:58:34.217Z,100581
2014-08-09T01:58:52.501Z,100589
2014-08-09T01:59:10.782Z,100581
2014-08-09T01:59:29.079Z,100578
2014-08-09T01:59:47.362Z,100592
2014-08-09T02:00:05.659Z,100578
2014-08-09T02:00:23.940Z,100578
2014-08-09T02:00:42.239Z,100586
2014-08-09T02:01:00.520Z,100578
2014-08-09T02:01:18.802Z,100581
2014-08-09T02:01:37.100Z,100575
2014-08-09T02:01:55.382Z,100573
2014-08-09T02:02:13.679Z,100578
2014-08-09T02:02:31.960Z,100581
2014-08-09T02:02:50.243Z,100578
2014-08-09T02:03:08.540Z,100581
2014-08-09T02:03:26.821Z,100581
2014-08-09T02:03:45.104Z,100589
2014-08-09T02:04:03.386Z,100581
2014-08-09T02:04:21.683Z,100586
2014-08-09T02:04:39.965Z,100589
2014-08-09T02:04:58.246Z,100597
2014-08-09T02:05:16.543Z,100592
2014-08-09T02:05:34.840Z,100581
2014-08-09T02:05:53.123Z,100600
2014-08-09T02:06:11.420Z,100581
2014-08-09T02:06:29.701Z,100598
2014-08-09T02:06:47.984Z,100592
2014-08-09T02:07:06.281Z,100595
2014-08-09T02:07:24.563Z,100589
2014-08-09T02:07:42.847Z,100592
2014-08-09T02:08:01.128Z,100592
2014-08-09T02:08:19.425Z,100581
2014-08-09T02:08:37.707Z,100586
2014-08-09T02:08:55.988Z,100578
2014-08-09T02:09:14.285Z,100586
2014-08-09T02:09:32.567Z,100592
2014-08-09T02:09:50.850Z,100595
2014-08-09T02:10:09.131Z,100589
2014-08-09T02:10:27.428Z,100589
2014-08-09T02:10:45.711Z,100578
2014-08-09T02:11:04.008Z,100581
2014-08-09T02:11:22.289Z,100586
2014-08-09T02:11:40.588Z,100578
2014-08-09T02:11:58.869Z,100581
2014-08-09T02:12:17.151Z,100581
2014-08-09T02:12:35.448Z,100586
2014-08-09T02:12:53.741Z,100586
2014-08-09T02:13:12.038Z,100581
2014-08-09T02:13:30.335Z,100581
2014-08-09T02:13:48.658Z,100586
2014-08-09T02:14:06.939Z,100581
2014-08-09T02:14:25.220Z,100586
2014-08-09T02:14:43.560Z,100575
2014-08-09T02:15:01.841Z,100570
2014-08-09T02:15:20.123Z,100575
2014-08-09T02:15:38.462Z,100586
2014-08-09T02:15:56.743Z,100581
2014-08-09T02:16:15.040Z,100578
2014-08-09T02:16:33.321Z,100567
2014-08-09T02:16:51.644Z,100581
2014-08-09T02:17:09.941Z,100573
2014-08-09T02:17:28.222Z,100570
2014-08-09T02:17:46.540Z,100567
2014-08-09T02:18:04.836Z,100578
2014-08-09T02:18:23.133Z,100578
2014-08-09T02:18:41.432Z,100570
2014-08-09T02:18:59.713Z,100570
2014-08-09T02:19:18.010Z,100573
2014-08-09T02:19:36.291Z,100573
2014-08-09T02:19:54.604Z,100575
2014-08-09T02:20:12.854Z,100567
2014-08-09T02:20:31.166Z,100575
2014-08-09T02:20:49.480Z,100578
2014-08-09T02:21:07.761Z,100578
2014-08-09T02:21:26.043Z,100575
2014-08-09T02:21:44.356Z,100567
2014-08-09T02:22:02.637Z,100567
2014-08-09T02:22:20.934Z,100575
2014-08-09T02:22:39.229Z,100572
2014-08-09T02:22:57.526Z,100572
2014-08-09T02:23:15.807Z,100572
2014-08-09T02:23:34.088Z,100572
2014-08-09T02:23:52.393Z,100578
2014-08-09T02:24:10.674Z,100570
2014-08-09T02:24:28.956Z,100567
2014-08-09T02:24:47.245Z,100570
2014-08-09T02:25:05.542Z,100564
2014-08-09T02:25:23.823Z,100578
2014-08-09T02:25:42.120Z,100558
2014-08-09T02:26:00.408Z,100573
2014-08-09T02:26:18.689Z,100564
2014-08-09T02:26:36.986Z,100561
2014-08-09T02:26:55.275Z,100561
2014-08-09T02:27:13.571Z,100567
2014-08-09T02:27:31.853Z,100570
2014-08-09T02:27:50.140Z,100558
2014-08-09T02:28:08.421Z,100564
2014-08-09T02:28:26.718Z,100552
2014-08-09T02:28:44.999Z,100561
2014-08-09T02:29:03.300Z,100552
2014-08-09T02:29:21.581Z,100558
2014-08-09T02:29:39.878Z,100561
2014-08-09T02:29:58.165Z,100561
2014-08-09T02:30:16.446Z,100555
2014-08-09T02:30:34.727Z,100555
2014-08-09T02:30:53.024Z,100552
2014-08-09T02:31:11.308Z,100561
2014-08-09T02:31:29.605Z,100552
2014-08-09T02:31:47.886Z,100555
2014-08-09T02:32:06.173Z,100558
2014-08-09T02:32:24.469Z,100552
2014-08-09T02:32:42.751Z,100561
2014-08-09T02:33:01.032Z,100552
2014-08-09T02:33:19.316Z,100561
2014-08-09T02:33:37.613Z,100561
2014-08-09T02:33:55.894Z,100558
2014-08-09T02:34:14.194Z,100561
2014-08-09T02:34:32.475Z,100555
2014-08-09T02:34:50.757Z,100564
2014-08-09T02:35:09.054Z,100561
2014-08-09T02:35:27.338Z,100555
2014-08-09T02:35:45.635Z,100558
2014-08-09T02:36:03.932Z,100558
2014-08-09T02:36:22.216Z,100561
2014-08-09T02:36:40.497Z,100561
2014-08-09T02:36:58.794Z,100561
2014-08-09T02:37:17.075Z,100558
2014-08-09T02:37:35.358Z,100567
2014-08-09T02:37:53.655Z,100572
2014-08-09T02:38:11.937Z,100564
2014-08-09T02:38:30.220Z,100564
2014-08-09T02:38:48.517Z,100570
2014-08-09T02:39:06.814Z,100567
2014-08-09T02:39:25.095Z,100567
2014-08-09T02:39:43.395Z,100570
2014-08-09T02:40:01.676Z,100561
2014-08-09T02:40:19.973Z,100572
2014-08-09T02:40:38.256Z,100570
2014-08-09T02:40:56.537Z,100570
2014-08-09T02:41:14.834Z,100575
2014-08-09T02:41:33.131Z,100561
2014-08-09T02:41:51.413Z,100572
2014-08-09T02:42:09.695Z,100572
2014-08-09T02:42:27.991Z,100570
2014-08-09T02:42:46.276Z,100564
2014-08-09T02:43:04.573Z,100578
2014-08-09T02:43:22.854Z,100567
2014-08-09T02:43:41.152Z,100558
2014-08-09T02:43:59.433Z,100558
2014-08-09T02:44:17.730Z,100561
2014-08-09T02:44:36.011Z,100558
2014-08-09T02:44:54.294Z,100564
2014-08-09T02:45:12.591Z,100564
2014-08-09T02:45:30.872Z,100570
2014-08-09T02:45:49.156Z,100570
2014-08-09T02:46:07.453Z,100567
2014-08-09T02:46:25.734Z,100558
2014-08-09T02:46:44.033Z,100564
2014-08-09T02:47:02.314Z,100573
2014-08-09T02:47:20.611Z,100573
2014-08-09T02:47:38.894Z,100558
2014-08-09T02:47:57.175Z,100567
2014-08-09T02:48:15.472Z,100567
2014-08-09T02:48:33.753Z,100575
2014-08-09T02:48:52.052Z,100570
2014-08-09T02:49:10.334Z,100567
2014-08-09T02:49:28.630Z,100564
2014-08-09T02:49:46.914Z,100567
2014-08-09T02:50:05.211Z,100561
2014-08-09T02:50:23.492Z,100564
2014-08-09T02:50:41.789Z,100561
2014-08-09T02:51:00.072Z,100561
2014-08-09T02:51:18.369Z,100567
2014-08-09T02:51:36.650Z,100564
2014-08-09T02:51:54.933Z,100558
2014-08-09T02:52:13.230Z,100558
2014-08-09T02:52:31.511Z,100555
2014-08-09T02:52:49.793Z,100561
2014-08-09T02:53:08.077Z,100570
2014-08-09T02:53:26.374Z,100561
2014-08-09T02:53:44.671Z,100564
2014-08-09T02:54:02.954Z,100552
2014-08-09T02:54:21.235Z,100547
2014-08-09T02:54:39.532Z,100561
2014-08-09T02:54:57.813Z,100555
2014-08-09T02:55:16.111Z,100552
2014-08-09T02:55:34.392Z,100544
2014-08-09T02:55:52.674Z,100547
2014-08-09T02:56:10.973Z,100547
2014-08-09T02:56:29.254Z,100547
2014-08-09T02:56:47.535Z,100547
2014-08-09T02:57:05.832Z,100532
2014-08-09T02:57:24.115Z,100535
2014-08-09T02:57:42.412Z,100535
2014-08-09T02:58:00.693Z,100529
2014-08-09T02:58:18.978Z,100532
2014-08-09T02:58:37.274Z,100532
2014-08-09T02:58:55.556Z,100532
2014-08-09T02:59:13.837Z,100529
2014-08-09T02:59:32.136Z,100524
2014-08-09T02:59:50.417Z,100527
2014-08-09T03:00:08.714Z,100527
2014-08-09T03:00:26.996Z,100532
2014-08-09T03:00:45.293Z,100518
2014-08-09T03:01:03.574Z,100527
2014-08-09T03:01:21.871Z,100521
2014-08-09T03:01:40.154Z,100521
2014-08-09T03:01:58.436Z,100524
2014-08-09T03:02:16.733Z,100524
2014-08-09T03:02:35.017Z,100524
2014-08-09T03:02:53.314Z,100512
2014-08-09T03:03:11.595Z,100515
2014-08-09T03:03:29.892Z,100524
2014-08-09T03:03:48.175Z,100524
2014-08-09T03:04:06.456Z,100507
2014-08-09T03:04:24.738Z,100515
2014-08-09T03:04:43.036Z,100507
2014-08-09T03:05:01.333Z,100509
2014-08-09T03:05:19.630Z,100504
2014-08-09T03:05:37.911Z,100512
2014-08-09T03:05:56.210Z,100512
2014-08-09T03:06:14.492Z,100501
2014-08-09T03:06:32.773Z,100512
2014-08-09T03:06:51.072Z,100504
2014-08-09T03:07:09.353Z,100506
2014-08-09T03:07:27.650Z,100518
2014-08-09T03:07:45.933Z,100509
2014-08-09T03:08:04.214Z,100501
2014-08-09T03:08:22.511Z,100504
2014-08-09T03:08:40.794Z,100512
2014-08-09T03:08:59.076Z,100512
2014-08-09T03:09:17.373Z,100492
2014-08-09T03:09:35.654Z,100504
2014-08-09T03:09:53.952Z,100501
2014-08-09T03:10:12.233Z,100501
2014-08-09T03:10:30.530Z,100501
2014-08-09T03:10:48.813Z,100498
2014-08-09T03:11:07.110Z,100504
2014-08-09T03:11:25.407Z,100498
2014-08-09T03:11:43.706Z,100498
2014-08-09T03:12:01.987Z,100515
2014-08-09T03:12:20.284Z,100506
2014-08-09T03:12:38.565Z,100512
2014-08-09T03:12:56.864Z,100495
2014-08-09T03:13:15.145Z,100506
2014-08-09T03:13:33.442Z,100501
2014-08-09T03:13:51.725Z,100504
2014-08-09T03:14:10.022Z,100506
2014-08-09T03:14:28.303Z,100495
2014-08-09T03:14:46.602Z,100498
2014-08-09T03:15:04.884Z,100501
2014-08-09T03:15:23.180Z,100501
2014-08-09T03:15:41.464Z,100506
2014-08-09T03:15:59.761Z,100503
2014-08-09T03:16:18.057Z,100498
2014-08-09T03:16:36.339Z,100509
2014-08-09T03:16:54.638Z,100512
2014-08-09T03:17:12.903Z,100506
2014-08-09T03:17:31.216Z,100509
2014-08-09T03:17:49.499Z,100509
2014-08-09T03:18:07.796Z,100509
2014-08-09T03:18:26.077Z,100515
2014-08-09T03:18:44.376Z,100506
2014-08-09T03:19:02.657Z,100509
2014-08-09T03:19:20.954Z,100504
2014-08-09T03:19:39.252Z,100506
2014-08-09T03:19:57.533Z,100504
2014-08-09T03:20:15.830Z,100506
2014-08-09T03:20:34.111Z,100501
2014-08-09T03:20:52.410Z,100492
2014-08-09T03:21:10.707Z,100504
2014-08-09T03:21:29.004Z,100498
2014-08-09T03:21:47.287Z,100506
2014-08-09T03:22:05.568Z,100506
2014-08-09T03:22:23.865Z,100498
2014-08-09T03:22:42.164Z,100495
2014-08-09T03:23:00.445Z,100498
2014-08-09T03:23:18.742Z,100503
2014-08-09T03:23:37.024Z,100503
2014-08-09T03:23:55.322Z,100498
2014-08-09T03:24:13.619Z,100506
2014-08-09T03:24:31.901Z,100504
2014-08-09T03:24:50.199Z,100498
2014-08-09T03:25:08.481Z,100504
2014-08-09T03:25:26.778Z,100509
2014-08-09T03:25:45.076Z,100498
2014-08-09T03:26:03.358Z,100503
2014-08-09T03:26:21.655Z,100512
2014-08-09T03:26:39.953Z,100512
2014-08-09T03:26:58.235Z,100501
2014-08-09T03:27:16.532Z,100512
2014-08-09T03:27:34.828Z,100503
2014-08-09T03:27:53.112Z,100509
2014-08-09T03:28:11.409Z,100504
2014-08-09T03:28:29.705Z,100509
2014-08-09T03:28:47.989Z,100506
2014-08-09T03:29:06.286Z,100506
2014-08-09T03:29:24.582Z,100506
2014-08-09T03:29:42.866Z,100501
2014-08-09T03:30:01.163Z,100501
2014-08-09T03:30:19.459Z,100506
2014-08-09T03:30:37.944Z,100498
2014-08-09T03:30:56.040Z,100498
2014-08-09T03:31:14.321Z,100506
2014-08-09T03:31:32.618Z,100498
2014-08-09T03:31:50.917Z,100506
2014-08-09T03:32:09.213Z,100495
2014-08-09T03:32:27.495Z,100506
2014-08-09T03:32:45.793Z,100509
2014-08-09T03:33:04.089Z,100515
2014-08-09T03:33:22.371Z,100503
2014-08-09T03:33:40.671Z,100498
2014-08-09T03:33:58.952Z,100498
2014-08-09T03:34:17.249Z,100515
2014-08-09T03:34:35.546Z,100503
2014-08-09T03:34:53.844Z,100503
2014-08-09T03:35:12.126Z,100506
2014-08-09T03:35:30.423Z,100503
2014-08-09T03:35:48.705Z,100503
2014-08-09T03:36:07.002Z,100509
2014-08-09T03:36:25.299Z,100501
2014-08-09T03:36:43.595Z,100498
2014-08-09T03:37:01.880Z,100512
2014-08-09T03:37:20.177Z,100495
2014-08-09T03:37:38.473Z,100506
2014-08-09T03:37:56.757Z,100515
2014-08-09T03:38:15.054Z,100501
2014-08-09T03:38:33.350Z,100506
2014-08-09T03:38:51.632Z,100506
2014-08-09T03:39:09.931Z,100509
2014-08-09T03:39:28.212Z,100515
2014-08-09T03:39:46.509Z,100501
2014-08-09T03:40:04.808Z,100509
2014-08-09T03:40:23.089Z,100506
2014-08-09T03:40:41.386Z,100495
2014-08-09T03:40:59.667Z,100503
2014-08-09T03:41:17.966Z,100498
2014-08-09T03:41:36.263Z,100498
2014-08-09T03:41:54.544Z,100501
2014-08-09T03:42:12.843Z,100489
2014-08-09T03:42:31.140Z,100498
2014-08-09T03:42:49.421Z,100503
2014-08-09T03:43:07.718Z,100495
2014-08-09T03:43:26.017Z,100498
2014-08-09T03:43:44.298Z,100495
2014-08-09T03:44:02.595Z,100492
2014-08-09T03:44:20.894Z,100501
2014-08-09T03:44:39.191Z,100489
2014-08-09T03:44:57.472Z,100489
2014-08-09T03:45:15.769Z,100489
2014-08-09T03:45:34.068Z,100495
2014-08-09T03:45:52.349Z,100492
2014-08-09T03:46:10.646Z,100498
2014-08-09T03:46:28.929Z,100486
2014-08-09T03:46:47.226Z,100498
2014-08-09T03:47:05.507Z,100495
2014-08-09T03:47:23.804Z,100483
2014-08-09T03:47:42.103Z,100486
2014-08-09T03:48:00.400Z,100489
2014-08-09T03:48:18.681Z,100489